Time;durP1;ratioP1;P1;durP2;ratioP2;P2;SDS_P1;SDS_P2;PMS_P1;PMS_P2;Temp;Humidity;BMP_temperature;BMP_pressure;BME280_temperature;BME280_humidity;BME280_pressure;Samples;Min_cycle;Max_cycle;Signal;HPM_P1;HPM_P2
2022/05/16 00:00:59;;;;;;;13.10;4.53;;;13.40;99.90;;;;;;5088485;28;20151;-80
2022/05/16 00:03:25;;;;;;;12.38;4.60;;;13.40;99.90;;;;;;5082373;28;20479;-81
2022/05/16 00:05:52;;;;;;;8.18;3.88;;;13.30;99.90;;;;;;5085201;28;20188;-80
2022/05/16 00:08:17;;;;;;;11.75;3.90;;;13.40;99.90;;;;;;5084714;28;20047;-81
2022/05/16 00:10:43;;;;;;;11.30;4.13;;;13.50;99.90;;;;;;5088787;28;20063;-80
2022/05/16 00:13:09;;;;;;;14.55;4.15;;;13.40;99.90;;;;;;5070494;28;20036;-80
2022/05/16 00:15:35;;;;;;;11.80;3.95;;;13.40;99.90;;;;;;5080938;28;20066;-80
2022/05/16 00:18:02;;;;;;;14.05;4.63;;;13.50;99.90;;;;;;5079074;28;20032;-80
2022/05/16 00:20:28;;;;;;;13.60;3.97;;;13.50;99.90;;;;;;5076889;28;20086;-80
2022/05/16 00:22:57;;;;;;;8.52;4.07;;;13.50;99.90;;;;;;5101212;28;20040;-80
2022/05/16 00:25:22;;;;;;;11.75;4.00;;;13.50;99.90;;;;;;5075205;28;20058;-80
2022/05/16 00:27:48;;;;;;;9.75;3.95;;;13.50;99.90;;;;;;5087462;28;20475;-80
2022/05/16 00:30:17;;;;;;;9.25;3.40;;;13.50;99.90;;;;;;5096308;28;20039;-80
2022/05/16 00:32:44;;;;;;;11.25;3.53;;;13.50;99.90;;;;;;5069178;28;20096;-81
2022/05/16 00:35:12;;;;;;;9.65;4.00;;;13.60;99.90;;;;;;5084256;28;20173;-81
2022/05/16 00:37:38;;;;;;;8.65;3.60;;;13.60;99.90;;;;;;5099141;28;20123;-80
2022/05/16 00:40:05;;;;;;;12.48;4.15;;;13.60;99.90;;;;;;5076774;28;20517;-81
2022/05/16 00:42:31;;;;;;;13.07;3.22;;;13.60;99.90;;;;;;5076895;28;20078;-80
2022/05/16 00:44:57;;;;;;;8.70;3.78;;;13.50;99.90;;;;;;5075060;28;20044;-80
2022/05/16 00:47:23;;;;;;;11.60;3.90;;;13.60;99.90;;;;;;5079988;28;20111;-80
2022/05/16 00:49:51;;;;;;;8.63;3.45;;;13.60;99.90;;;;;;5079396;28;20060;-81
2022/05/16 00:52:25;;;;;;;11.00;3.33;;;13.60;99.90;;;;;;5066853;28;20462;-81
2022/05/16 00:54:55;;;;;;;10.73;4.03;;;13.50;99.90;;;;;;5091233;28;20083;-81
2022/05/16 00:57:26;;;;;;;9.82;4.03;;;13.50;99.90;;;;;;5075274;28;20082;-81
2022/05/16 00:59:54;;;;;;;11.70;4.07;;;13.50;99.90;;;;;;5089577;28;20040;-81
2022/05/16 01:05:08;;;;;;;11.05;3.80;;;13.40;99.90;;;;;;5093473;28;20043;-80
2022/05/16 01:07:38;;;;;;;10.48;3.83;;;13.40;99.90;;;;;;5080553;28;20050;-79
2022/05/16 01:10:06;;;;;;;9.80;3.60;;;13.70;99.90;;;;;;5091868;28;20099;-76
2022/05/16 01:12:35;;;;;;;11.68;3.63;;;13.30;99.90;;;;;;5099418;28;20043;-76
2022/05/16 01:15:05;;;;;;;10.88;3.92;;;13.30;99.90;;;;;;5087860;28;20038;-79
2022/05/16 01:17:31;;;;;;;8.63;3.50;;;13.20;99.90;;;;;;5096485;28;20516;-80
2022/05/16 01:19:57;;;;;;;9.75;3.90;;;13.20;99.90;;;;;;5079494;28;20040;-79
2022/05/16 01:22:38;;;;;;;8.25;3.47;;;13.10;99.90;;;;;;5092225;28;20066;-80
2022/05/16 01:25:16;;;;;;;10.27;3.35;;;13.20;99.90;;;;;;5086667;28;20070;-80
2022/05/16 01:27:51;;;;;;;6.85;3.50;;;13.10;99.90;;;;;;5077841;28;20122;-80
2022/05/16 01:30:31;;;;;;;11.20;3.67;;;13.10;99.90;;;;;;5077835;28;20044;-80
2022/05/16 01:32:57;;;;;;;8.60;3.50;;;13.10;99.90;;;;;;5097027;28;20127;-80
2022/05/16 01:35:30;;;;;;;8.15;3.60;;;13.10;99.90;;;;;;5106001;28;20100;-80
2022/05/16 01:40:41;;;;;;;12.85;3.85;;;13.10;99.90;;;;;;5093735;28;20055;-80
2022/05/16 01:43:10;;;;;;;6.53;3.13;;;13.00;99.90;;;;;;5077706;28;20040;-80
2022/05/16 01:45:37;;;;;;;7.53;2.88;;;13.10;99.90;;;;;;5083011;28;20054;-80
2022/05/16 01:48:04;;;;;;;5.25;3.25;;;13.00;99.90;;;;;;5074733;28;20040;-79
2022/05/16 01:50:29;;;;;;;7.80;3.10;;;13.00;99.90;;;;;;5094922;28;20040;-79
2022/05/16 01:52:55;;;;;;;12.82;3.05;;;13.00;99.90;;;;;;5080883;28;20053;-80
2022/05/16 01:55:21;;;;;;;6.55;2.85;;;12.90;99.90;;;;;;5078001;28;20078;-80
2022/05/16 01:57:46;;;;;;;4.72;2.75;;;12.90;99.90;;;;;;5075052;28;20042;-80
2022/05/16 02:00:16;;;;;;;7.45;3.03;;;12.90;99.90;;;;;;5073648;28;20040;-79
2022/05/16 02:02:42;;;;;;;8.00;2.95;;;12.90;99.90;;;;;;5087172;28;20052;-80
2022/05/16 02:05:14;;;;;;;5.68;2.90;;;12.90;99.90;;;;;;5081221;28;20039;-80
2022/05/16 02:07:40;;;;;;;8.15;3.15;;;12.80;99.90;;;;;;5073913;28;20035;-80
2022/05/16 02:10:11;;;;;;;7.10;2.65;;;12.80;99.90;;;;;;5108659;27;20463;-79
2022/05/16 02:12:37;;;;;;;5.95;2.50;;;12.80;99.90;;;;;;5086127;28;20983;-80
2022/05/16 02:15:05;;;;;;;5.10;2.70;;;12.80;99.90;;;;;;5074821;28;20031;-80
2022/05/16 02:17:30;;;;;;;8.73;2.83;;;12.70;99.90;;;;;;5078280;28;20180;-79
2022/05/16 02:19:56;;;;;;;7.22;2.80;;;12.70;99.90;;;;;;5080977;28;20202;-80
2022/05/16 02:25:06;;;;;;;8.88;2.70;;;12.70;99.90;;;;;;5103941;28;20044;-79
2022/05/16 02:27:32;;;;;;;7.30;2.55;;;12.70;99.90;;;;;;5104504;28;20036;-79
2022/05/16 02:29:58;;;;;;;6.97;2.25;;;12.70;99.90;;;;;;5083748;28;20054;-80
2022/05/16 02:32:24;;;;;;;7.07;2.58;;;12.70;99.90;;;;;;5084262;28;20043;-79
2022/05/16 02:34:50;;;;;;;4.32;2.70;;;12.60;99.90;;;;;;5084121;28;20089;-80
2022/05/16 02:37:16;;;;;;;7.72;2.58;;;12.70;99.90;;;;;;5091651;28;20035;-76
2022/05/16 02:39:44;;;;;;;7.50;2.42;;;12.60;99.90;;;;;;5099764;28;20035;-77
2022/05/16 02:42:14;;;;;;;5.70;2.22;;;12.60;99.90;;;;;;5087366;28;20039;-80
2022/05/16 02:44:44;;;;;;;10.05;2.50;;;12.70;99.90;;;;;;5107184;28;20062;-80
2022/05/16 02:47:17;;;;;;;6.45;2.35;;;12.70;99.90;;;;;;5085205;28;20036;-80
2022/05/16 02:49:43;;;;;;;6.78;2.47;;;12.60;99.90;;;;;;5060419;28;20044;-80
2022/05/16 02:52:09;;;;;;;5.85;2.30;;;12.60;99.90;;;;;;5089651;28;20082;-80
2022/05/16 02:54:36;;;;;;;7.65;2.38;;;12.60;99.90;;;;;;5088926;28;20081;-80
2022/05/16 02:57:03;;;;;;;4.78;2.72;;;12.60;99.90;;;;;;5071997;28;20042;-81
2022/05/16 02:59:32;;;;;;;8.00;2.20;;;12.60;99.90;;;;;;5079525;28;20045;-81
2022/05/16 03:02:03;;;;;;;6.72;2.47;;;13.10;99.90;;;;;;5076797;28;20156;-81
2022/05/16 03:04:29;;;;;;;5.70;2.50;;;12.50;99.90;;;;;;5072974;28;21829;-80
2022/05/16 03:06:55;;;;;;;5.40;2.40;;;12.50;99.90;;;;;;5073198;28;20158;-80
2022/05/16 03:09:22;;;;;;;4.45;2.30;;;12.50;99.90;;;;;;5078932;28;20035;-80
2022/05/16 03:11:48;;;;;;;6.10;2.50;;;12.60;99.90;;;;;;5083776;28;20040;-81
2022/05/16 03:14:14;;;;;;;4.55;2.30;;;12.30;99.90;;;;;;5084216;28;20036;-81
2022/05/16 03:16:40;;;;;;;9.23;2.65;;;12.30;99.90;;;;;;5104033;28;20039;-80
2022/05/16 03:19:06;;;;;;;6.20;2.50;;;12.80;99.90;;;;;;5079689;28;20394;-80
2022/05/16 03:21:32;;;;;;;4.53;2.15;;;12.30;99.90;;;;;;5091861;28;20118;-81
2022/05/16 03:23:58;;;;;;;6.15;2.78;;;12.20;99.90;;;;;;5073415;28;20123;-80
2022/05/16 03:26:26;;;;;;;6.15;2.40;;;12.30;99.90;;;;;;5073502;28;20105;-80
2022/05/16 03:28:52;;;;;;;5.13;2.22;;;12.20;99.90;;;;;;5072893;28;20112;-79
2022/05/16 03:31:18;;;;;;;4.95;2.20;;;12.10;99.90;;;;;;5094870;28;20471;-80
2022/05/16 03:33:44;;;;;;;4.90;2.28;;;12.20;99.90;;;;;;5079334;28;20050;-80
2022/05/16 03:36:10;;;;;;;6.30;2.15;;;12.10;99.90;;;;;;5078911;28;20044;-79
2022/05/16 03:41:21;;;;;;;6.00;2.50;;;12.30;99.90;;;;;;5089411;28;20044;-79
2022/05/16 03:43:47;;;;;;;4.97;2.17;;;12.10;99.90;;;;;;5094690;28;20039;-79
2022/05/16 03:46:13;;;;;;;6.90;2.25;;;12.10;99.90;;;;;;5094758;28;20032;-78
2022/05/16 03:48:39;;;;;;;4.85;2.38;;;12.10;99.90;;;;;;5079180;28;20074;-79
2022/05/16 03:51:07;;;;;;;7.93;2.67;;;12.10;99.90;;;;;;5091281;28;20048;-81
2022/05/16 03:53:36;;;;;;;6.95;1.98;;;12.00;99.90;;;;;;5075806;28;20137;-81
2022/05/16 03:56:03;;;;;;;7.93;2.28;;;12.20;99.90;;;;;;5099066;28;20123;-81
2022/05/16 03:58:29;;;;;;;10.93;2.60;;;12.10;99.90;;;;;;5106850;28;20375;-80
2022/05/16 04:00:58;;;;;;;8.45;2.50;;;12.00;99.90;;;;;;5092417;28;20123;-80
2022/05/16 04:03:24;;;;;;;7.15;2.58;;;12.00;99.90;;;;;;5100741;28;20066;-77
2022/05/16 04:05:50;;;;;;;6.90;2.20;;;12.00;99.90;;;;;;5092321;28;20495;-77
2022/05/16 04:08:16;;;;;;;5.40;2.17;;;12.10;99.90;;;;;;5116298;28;20051;-81
2022/05/16 04:10:42;;;;;;;13.55;2.13;;;12.10;99.90;;;;;;5109717;28;20091;-80
2022/05/16 04:13:08;;;;;;;5.68;2.08;;;12.30;99.90;;;;;;5076409;28;20047;-80
2022/05/16 04:15:33;;;;;;;7.05;2.20;;;12.10;99.90;;;;;;5076472;28;20040;-80
2022/05/16 04:17:59;;;;;;;11.30;3.38;;;12.30;99.90;;;;;;5086933;28;20043;-80
2022/05/16 04:20:25;;;;;;;6.53;2.45;;;12.30;99.90;;;;;;5077061;28;20042;-80
2022/05/16 04:22:51;;;;;;;10.35;2.15;;;12.20;99.90;;;;;;5098093;28;20070;-80
2022/05/16 04:25:19;;;;;;;4.90;2.20;;;12.30;99.90;;;;;;5096348;28;20039;-81
2022/05/16 04:27:44;;;;;;;6.80;2.30;;;12.50;99.90;;;;;;5080372;28;20044;-80
2022/05/16 04:30:11;;;;;;;5.75;2.42;;;12.40;99.90;;;;;;5085950;28;20036;-80
2022/05/16 04:32:37;;;;;;;7.88;2.20;;;12.40;99.90;;;;;;5092277;28;20466;-80
2022/05/16 04:35:03;;;;;;;7.32;2.28;;;12.40;99.90;;;;;;5097737;28;20036;-81
2022/05/16 04:37:32;;;;;;;4.22;2.08;;;12.50;99.90;;;;;;5088717;28;20036;-80
2022/05/16 04:40:04;;;;;;;7.25;2.70;;;12.90;99.90;;;;;;5081839;28;20123;-81
2022/05/16 04:42:43;;;;;;;8.73;2.50;;;12.20;99.90;;;;;;5106639;28;20572;-81
2022/05/16 04:45:22;;;;;;;5.43;2.38;;;12.60;99.90;;;;;;5106535;28;20482;-81
2022/05/16 04:47:50;;;;;;;6.82;2.30;;;12.60;99.90;;;;;;5094324;28;20043;-81
2022/05/16 04:50:20;;;;;;;7.50;2.45;;;12.70;99.90;;;;;;5084255;28;20062;-81
2022/05/16 04:52:46;;;;;;;7.03;2.42;;;12.80;99.90;;;;;;5109526;28;20135;-81
2022/05/16 04:55:15;;;;;;;7.18;2.38;;;12.90;99.90;;;;;;5098342;28;21258;-81
2022/05/16 04:57:41;;;;;;;5.85;2.30;;;13.20;99.90;;;;;;5084554;28;20044;-81
2022/05/16 05:00:09;;;;;;;8.00;2.42;;;13.00;99.90;;;;;;5087278;28;20159;-81
2022/05/16 05:02:34;;;;;;;4.32;2.10;;;13.00;99.90;;;;;;5076323;28;20051;-81
2022/05/16 05:05:00;;;;;;;5.97;2.50;;;13.10;99.90;;;;;;5099057;28;20044;-81
2022/05/16 05:07:26;;;;;;;7.55;2.42;;;13.20;99.90;;;;;;5095901;28;20040;-81
2022/05/16 05:15:21;;;;;;;5.07;2.17;;;13.30;99.90;;;;;;5098132;28;20044;-82
2022/05/16 05:17:47;;;;;;;8.02;2.03;;;13.40;99.90;;;;;;5090377;28;20036;-81
2022/05/16 05:20:14;;;;;;;5.97;2.38;;;13.50;99.90;;;;;;5081970;28;20043;-81
2022/05/16 05:22:45;;;;;;;5.68;2.03;;;13.50;99.90;;;;;;5074692;28;20140;-81
2022/05/16 05:25:15;;;;;;;10.32;2.50;;;13.50;99.90;;;;;;5079073;28;20092;-81
2022/05/16 05:27:42;;;;;;;4.78;2.25;;;13.50;99.90;;;;;;5081518;28;20127;-81
2022/05/16 05:33:49;;;;;;;6.90;2.50;;;13.60;99.90;;;;;;5113728;28;20073;-79
2022/05/16 05:36:15;;;;;;;8.43;2.55;;;13.60;99.90;;;;;;5097585;28;20429;-75
2022/05/16 05:38:41;;;;;;;6.72;2.38;;;13.80;99.90;;;;;;5074790;28;20043;-77
2022/05/16 05:41:08;;;;;;;5.57;2.70;;;14.00;99.90;;;;;;5070799;28;20044;-74
2022/05/16 05:43:34;;;;;;;14.07;2.30;;;14.10;99.90;;;;;;5072079;28;20402;-76
2022/05/16 05:46:03;;;;;;;9.10;2.63;;;14.10;99.90;;;;;;5087198;28;20544;-76
2022/05/16 05:48:28;;;;;;;7.30;2.60;;;14.30;99.90;;;;;;5084618;28;20421;-75
2022/05/16 05:50:54;;;;;;;5.63;2.78;;;14.30;99.90;;;;;;5077505;28;20039;-76
2022/05/16 05:53:20;;;;;;;11.43;3.00;;;14.40;99.90;;;;;;5075805;28;20090;-76
2022/05/16 05:55:47;;;;;;;6.80;2.65;;;14.40;99.90;;;;;;5093863;28;20039;-76
2022/05/16 05:58:14;;;;;;;5.35;2.20;;;14.40;99.90;;;;;;5089413;28;20417;-76
2022/05/16 06:00:41;;;;;;;10.00;2.90;;;14.40;99.90;;;;;;5077407;28;20109;-76
2022/05/16 06:03:07;;;;;;;6.07;2.58;;;14.30;99.90;;;;;;5073251;28;20048;-78
2022/05/16 06:05:33;;;;;;;11.13;3.17;;;14.30;99.90;;;;;;5070658;28;20046;-75
2022/05/16 06:07:59;;;;;;;7.32;3.20;;;14.30;99.90;;;;;;5069635;28;20414;-77
2022/05/16 06:10:25;;;;;;;8.25;3.10;;;14.30;99.90;;;;;;5088397;28;20058;-74
2022/05/16 06:12:51;;;;;;;11.05;2.78;;;14.40;99.90;;;;;;5069828;28;20117;-74
2022/05/16 06:15:16;;;;;;;9.18;3.05;;;14.50;99.90;;;;;;5089168;28;20048;-75
2022/05/16 06:17:43;;;;;;;9.50;2.80;;;14.50;99.90;;;;;;5090376;28;20044;-76
2022/05/16 06:20:11;;;;;;;8.15;2.92;;;14.50;99.90;;;;;;5088799;28;20051;-76
2022/05/16 06:22:38;;;;;;;9.40;3.13;;;14.50;99.90;;;;;;5090613;28;20032;-76
2022/05/16 06:25:33;;;;;;;8.10;2.75;;;14.50;99.90;;;;;;5071814;28;21083;-76
2022/05/16 06:28:16;;;;;;;8.88;3.08;;;14.60;99.90;;;;;;5088935;28;20541;-74
2022/05/16 06:30:45;;;;;;;14.55;3.08;;;14.80;99.90;;;;;;5092459;28;20042;-74
2022/05/16 06:33:12;;;;;;;10.35;3.08;;;14.90;99.90;;;;;;5090491;28;20043;-76
2022/05/16 06:35:39;;;;;;;12.82;3.10;;;14.90;99.90;;;;;;5092746;28;20055;-74
2022/05/16 06:38:05;;;;;;;14.82;3.40;;;15.10;99.90;;;;;;5068780;28;20040;-77
2022/05/16 06:40:31;;;;;;;11.10;3.45;;;15.20;99.90;;;;;;5069546;28;20055;-75
2022/05/16 06:42:58;;;;;;;12.27;3.40;;;15.30;99.90;;;;;;5089027;28;20052;-79
2022/05/16 06:45:27;;;;;;;8.95;2.83;;;15.40;99.90;;;;;;5096126;27;20052;-80
2022/05/16 06:47:53;;;;;;;10.55;3.20;;;15.40;99.90;;;;;;5076624;28;20051;-80
2022/05/16 06:50:19;;;;;;;7.82;2.75;;;15.50;99.90;;;;;;5079888;28;20077;-81
2022/05/16 06:52:44;;;;;;;9.40;3.10;;;15.70;99.90;;;;;;5078509;28;20082;-79
2022/05/16 06:55:10;;;;;;;8.68;2.95;;;15.70;99.90;;;;;;5106396;28;20060;-79
2022/05/16 06:57:37;;;;;;;10.45;2.75;;;15.90;99.90;;;;;;5097924;28;20100;-76
2022/05/16 07:00:06;;;;;;;8.20;3.08;;;16.00;99.90;;;;;;5105238;28;20052;-77
2022/05/16 07:02:35;;;;;;;13.57;3.65;;;16.10;99.90;;;;;;5064796;28;20124;-83
2022/05/16 07:05:04;;;;;;;11.73;3.22;;;16.20;99.90;;;;;;5072937;28;20060;-81
2022/05/16 07:07:30;;;;;;;13.95;3.80;;;16.30;99.90;;;;;;5088526;28;20058;-82
2022/05/16 07:09:56;;;;;;;8.70;3.45;;;16.40;99.90;;;;;;5069945;28;20043;-80
2022/05/16 07:12:22;;;;;;;10.65;3.50;;;16.50;99.90;;;;;;5085963;28;20051;-77
2022/05/16 07:14:48;;;;;;;12.00;3.72;;;16.60;99.90;;;;;;5089154;28;20479;-76
2022/05/16 07:17:14;;;;;;;10.18;3.42;;;16.70;99.90;;;;;;5087204;28;20052;-78
2022/05/16 07:19:40;;;;;;;14.02;3.67;;;16.70;99.90;;;;;;5086729;28;20113;-76
2022/05/16 07:22:14;;;;;;;15.15;3.60;;;16.70;99.90;;;;;;5085273;28;20577;-76
2022/05/16 07:24:41;;;;;;;15.20;3.03;;;16.70;99.90;;;;;;5087910;28;20130;-76
2022/05/16 07:29:52;;;;;;;10.15;3.25;;;17.10;99.90;;;;;;5088513;28;20050;-76
2022/05/16 07:32:17;;;;;;;11.10;3.17;;;17.30;99.90;;;;;;5090578;28;20135;-75
2022/05/16 07:34:43;;;;;;;11.25;3.35;;;17.50;99.90;;;;;;5090234;28;20468;-79
2022/05/16 07:37:09;;;;;;;14.98;3.17;;;17.60;99.90;;;;;;5094061;28;20031;-76
2022/05/16 07:39:35;;;;;;;12.32;2.85;;;17.80;99.90;;;;;;5109220;28;20444;-79
2022/05/16 07:42:03;;;;;;;12.23;2.97;;;17.90;99.90;;;;;;5101229;28;20136;-76
2022/05/16 07:44:29;;;;;;;14.23;3.33;;;18.00;99.90;;;;;;5085495;28;20044;-77
2022/05/16 07:46:55;;;;;;;14.10;3.20;;;18.10;99.90;;;;;;5091215;28;20044;-77
2022/05/16 07:49:21;;;;;;;12.82;3.10;;;18.20;99.90;;;;;;5093700;28;20040;-80
2022/05/16 07:51:47;;;;;;;11.95;3.30;;;18.10;99.90;;;;;;5081506;28;20477;-77
2022/05/16 07:54:13;;;;;;;10.60;3.53;;;18.20;99.90;;;;;;5097766;28;20517;-77
2022/05/16 07:56:39;;;;;;;14.35;3.17;;;18.30;99.90;;;;;;5084483;28;20071;-76
2022/05/16 07:59:06;;;;;;;8.43;2.90;;;18.40;99.90;;;;;;5077203;28;20410;-76
2022/05/16 08:01:32;;;;;;;17.63;2.88;;;18.50;99.90;;;;;;5093393;28;20056;-76
2022/05/16 08:03:58;;;;;;;13.02;3.28;;;18.70;99.90;;;;;;5098148;28;21082;-76
2022/05/16 08:06:27;;;;;;;12.35;3.10;;;18.90;99.90;;;;;;5080559;28;20110;-77
2022/05/16 08:11:38;;;;;;;13.40;3.33;;;19.00;99.90;;;;;;5097179;28;20128;-76
2022/05/16 08:14:04;;;;;;;13.35;2.83;;;19.20;99.90;;;;;;5091231;28;20063;-75
2022/05/16 08:16:30;;;;;;;10.98;3.15;;;19.20;99.90;;;;;;5091157;28;20048;-76
2022/05/16 08:18:56;;;;;;;10.90;2.92;;;19.30;99.90;;;;;;5087746;28;20097;-79
2022/05/16 08:21:25;;;;;;;8.10;2.70;;;19.30;99.90;;;;;;5092273;28;20032;-77
2022/05/16 08:23:51;;;;;;;12.27;3.40;;;19.40;99.90;;;;;;5116340;28;20048;-72
2022/05/16 08:26:17;;;;;;;10.95;2.85;;;19.60;99.90;;;;;;5095462;28;20039;-74
2022/05/16 08:28:42;;;;;;;12.48;2.85;;;19.70;99.90;;;;;;5092565;28;20091;-73
2022/05/16 08:31:08;;;;;;;14.82;3.20;;;19.80;99.90;;;;;;5097615;28;20047;-74
2022/05/16 08:33:36;;;;;;;11.93;2.58;;;20.00;99.90;;;;;;5098457;28;20158;-73
2022/05/16 08:41:39;;;;;;;9.75;2.70;;;20.30;99.90;;;;;;5093191;28;20032;-74
2022/05/16 08:44:24;;;;;;;16.48;3.08;;;20.50;99.90;;;;;;5084614;28;20044;-74
2022/05/16 08:47:23;;;;;;;8.30;2.83;;;20.70;99.90;;;;;;5093605;28;20501;-74
2022/05/16 08:49:57;;;;;;;11.23;2.80;;;20.90;99.90;;;;;;5097649;28;20044;-75
2022/05/16 08:52:38;;;;;;;17.53;3.20;;;21.30;99.90;;;;;;5096474;28;20105;-75
2022/05/16 08:55:29;;;;;;;7.72;2.70;;;21.40;99.90;;;;;;5093311;28;20099;-75
2022/05/16 08:58:06;;;;;;;11.48;3.15;;;21.60;99.90;;;;;;5075066;28;20682;-75
2022/05/16 09:00:51;;;;;;;9.45;2.40;;;21.70;99.90;;;;;;5082113;28;20368;-76
2022/05/16 09:03:38;;;;;;;9.65;3.20;;;21.90;99.90;;;;;;5094706;28;20063;-76
2022/05/16 09:06:12;;;;;;;10.52;2.83;;;22.10;99.90;;;;;;5074621;28;20459;-75
2022/05/16 09:08:49;;;;;;;12.10;3.10;;;22.20;99.90;;;;;;5077503;28;20039;-76
2022/05/16 09:11:54;;;;;;;8.57;2.95;;;22.20;99.90;;;;;;5080180;28;20048;-77
2022/05/16 09:14:28;;;;;;;12.33;3.10;;;22.20;99.90;;;;;;5100848;28;20083;-74
2022/05/16 09:17:02;;;;;;;12.35;3.10;;;22.20;99.90;;;;;;5095429;28;20325;-76
2022/05/16 09:19:56;;;;;;;11.68;3.03;;;22.20;99.90;;;;;;5076379;28;20051;-75
2022/05/16 09:22:29;;;;;;;12.68;3.28;;;22.20;99.90;;;;;;5105818;28;20051;-77
2022/05/16 09:25:09;;;;;;;15.63;3.40;;;22.10;99.90;;;;;;5092268;28;20124;-77
2022/05/16 09:30:25;;;;;;;10.73;2.78;;;21.90;99.90;;;;;;5091819;28;20051;-76
2022/05/16 09:33:04;;;;;;;10.85;3.00;;;22.10;99.90;;;;;;5101905;28;20779;-77
2022/05/16 09:35:56;;;;;;;11.27;2.75;;;22.20;99.90;;;;;;5095154;28;20043;-79
2022/05/16 09:38:22;;;;;;;8.90;2.80;;;22.20;99.90;;;;;;5083107;28;20052;-78
2022/05/16 09:41:00;;;;;;;11.48;2.88;;;22.10;99.90;;;;;;5101596;28;20118;-77
2022/05/16 09:43:30;;;;;;;12.88;2.80;;;22.30;99.90;;;;;;5105730;28;20066;-77
2022/05/16 09:46:01;;;;;;;9.55;2.72;;;22.50;99.90;;;;;;5094014;28;20089;-78
2022/05/16 09:48:27;;;;;;;13.73;3.08;;;22.90;99.90;;;;;;5087398;28;20461;-76
2022/05/16 09:50:59;;;;;;;26.23;3.63;;;23.00;99.90;;;;;;5097974;28;20060;-75
2022/05/16 09:53:36;;;;;;;16.83;3.42;;;22.90;99.90;;;;;;5075415;28;20056;-78
2022/05/16 09:56:12;;;;;;;10.18;2.90;;;23.10;99.90;;;;;;5096702;28;20043;-78
2022/05/16 09:59:00;;;;;;;30.63;3.53;;;23.50;99.90;;;;;;5099124;28;20104;-79
2022/05/16 10:01:37;;;;;;;16.90;3.00;;;23.60;99.90;;;;;;5095364;28;20103;-78
2022/05/16 10:04:09;;;;;;;19.95;3.60;;;23.70;99.90;;;;;;5094176;28;20075;-80
2022/05/16 10:06:37;;;;;;;15.05;3.22;;;23.90;99.90;;;;;;5078209;28;20065;-79
2022/05/16 10:09:14;;;;;;;12.32;2.90;;;24.20;99.90;;;;;;5090534;28;20047;-82
2022/05/16 10:11:43;;;;;;;9.48;2.80;;;24.50;99.90;;;;;;5085188;28;20047;-79
2022/05/16 10:14:09;;;;;;;14.00;3.10;;;24.80;99.60;;;;;;5094579;28;20490;-79
2022/05/16 10:16:39;;;;;;;10.00;3.20;;;25.10;98.90;;;;;;5072057;28;20430;-78
2022/05/16 10:19:09;;;;;;;12.80;3.25;;;25.00;98.10;;;;;;5087486;28;20047;-76
2022/05/16 10:21:41;;;;;;;9.63;2.60;;;25.50;99.40;;;;;;5074955;28;20127;-79
2022/05/16 10:24:11;;;;;;;13.68;2.92;;;25.70;98.80;;;;;;5092146;28;20117;-77
2022/05/16 10:26:44;;;;;;;12.77;3.42;;;25.90;98.50;;;;;;5079661;28;20498;-80
2022/05/16 10:29:15;;;;;;;12.55;3.00;;;26.10;98.30;;;;;;5075077;28;20424;-79
2022/05/16 10:34:41;;;;;;;9.45;2.60;;;26.00;96.00;;;;;;5100394;28;20181;-78
2022/05/16 10:37:07;;;;;;;7.20;2.58;;;26.10;95.90;;;;;;5096957;28;20032;-78
2022/05/16 10:39:38;;;;;;;9.15;2.97;;;25.80;94.90;;;;;;5092731;28;20055;-76
2022/05/16 10:42:10;;;;;;;9.93;2.63;;;26.10;96.00;;;;;;5098233;28;20111;-79
2022/05/16 10:45:06;;;;;;;11.85;3.03;;;26.00;95.00;;;;;;5096672;28;20091;-78
2022/05/16 10:47:45;;;;;;;12.27;2.75;;;26.30;94.50;;;;;;5095058;28;20043;-75
2022/05/16 10:50:26;;;;;;;10.27;2.90;;;26.60;96.00;;;;;;5088943;28;20063;-76
2022/05/16 10:53:32;;;;;;;14.88;2.88;;;27.00;94.80;;;;;;5089650;28;20066;-78
2022/05/16 10:56:37;;;;;;;18.35;2.88;;;27.20;95.50;;;;;;5097271;28;20494;-80
2022/05/16 10:59:36;;;;;;;13.82;2.70;;;27.10;94.40;;;;;;5081622;28;21906;-76
2022/05/16 11:02:20;;;;;;;7.78;2.53;;;27.10;95.00;;;;;;5091920;28;20149;-79
2022/05/16 11:05:11;;;;;;;12.93;2.80;;;27.00;94.20;;;;;;5079466;28;20130;-78
2022/05/16 11:08:20;;;;;;;19.08;3.17;;;27.20;94.40;;;;;;5099996;28;20305;-77
2022/05/16 11:11:21;;;;;;;21.73;2.90;;;27.60;94.10;;;;;;5074051;28;20120;-79
2022/05/16 11:14:21;;;;;;;8.15;2.58;;;27.60;92.20;;;;;;5009986;28;20054;-74
2022/05/16 11:16:50;;;;;;;10.57;2.58;;;27.40;91.90;;;;;;4978839;28;20054;-75
2022/05/16 11:19:42;;;;;;;10.23;2.83;;;27.00;91.70;;;;;;4990456;28;21675;-79
2022/05/16 11:22:30;;;;;;;7.95;2.33;;;26.80;91.30;;;;;;4968457;28;20064;-78
2022/05/16 11:25:08;;;;;;;11.88;2.65;;;26.60;93.00;;;;;;4986649;28;20065;-79
2022/05/16 11:28:03;;;;;;;11.30;2.83;;;26.40;93.20;;;;;;4983816;28;20058;-81
2022/05/16 11:30:39;;;;;;;7.88;2.40;;;26.20;93.00;;;;;;4985663;28;20050;-79
2022/05/16 11:33:29;;;;;;;11.38;2.85;;;26.10;93.30;;;;;;4983338;28;20046;-79
2022/05/16 11:36:01;;;;;;;10.98;2.50;;;26.00;94.40;;;;;;4988217;28;20046;-76
2022/05/16 11:38:38;;;;;;;6.85;2.55;;;26.00;94.40;;;;;;5008256;28;20045;-77
2022/05/16 11:41:35;;;;;;;456.55;24.13;;;25.80;94.60;;;;;;4992534;28;20258;-78
2022/05/16 11:44:22;;;;;;;7.93;2.50;;;25.80;95.00;;;;;;4966783;28;20565;-80
2022/05/16 11:47:05;;;;;;;8.27;2.38;;;25.80;95.50;;;;;;5015193;28;20088;-78
2022/05/16 11:50:09;;;;;;;10.23;2.28;;;25.70;95.80;;;;;;5022663;28;20032;-77
2022/05/16 11:52:58;;;;;;;6.70;2.53;;;25.80;95.10;;;;;;5094803;28;20139;-75
2022/05/16 12:01:32;;;;;;;6.93;2.40;;;26.00;95.90;;;;;;5090330;28;20064;-80
2022/05/16 12:04:11;;;;;;;9.45;2.47;;;26.00;96.00;;;;;;5076828;28;20050;-78
2022/05/16 12:06:39;;;;;;;12.82;2.80;;;26.00;96.80;;;;;;5072056;28;20100;-81
2022/05/16 12:09:24;;;;;;;8.88;3.03;;;26.10;97.10;;;;;;5073079;28;20051;-81
2022/05/16 12:11:59;;;;;;;8.13;3.08;;;26.10;96.50;;;;;;5094404;28;20531;-82
2022/05/16 12:14:34;;;;;;;13.70;3.50;;;26.20;96.70;;;;;;5079062;28;20570;-78
2022/05/16 12:17:17;;;;;;;;;;;26.30;97.10;;;;;;5088205;28;20048;-77
2022/05/16 12:19:48;;;;;;;11.52;2.95;;;26.30;97.50;;;;;;5089660;28;20311;-74
2022/05/16 12:22:43;;;;;;;9.50;3.20;;;26.30;97.50;;;;;;5071442;28;20055;-75
2022/05/16 12:25:09;;;;;;;10.43;2.88;;;26.30;96.90;;;;;;5092474;28;20047;-74
2022/05/16 12:27:43;;;;;;;14.85;3.83;;;26.30;97.50;;;;;;5085238;28;20094;-74
2022/05/16 12:30:35;;;;;;;11.60;3.38;;;26.20;97.80;;;;;;5092398;28;20060;-75
2022/05/16 12:33:01;;;;;;;8.68;3.25;;;26.00;97.60;;;;;;5092048;28;20052;-74
2022/05/16 12:35:27;;;;;;;14.45;3.55;;;25.90;98.00;;;;;;5097640;28;20078;-75
2022/05/16 12:37:56;;;;;;;13.88;3.72;;;25.70;98.20;;;;;;5080512;28;20048;-75
2022/05/16 12:40:36;;;;;;;15.82;3.67;;;25.70;98.10;;;;;;5097714;28;20048;-73
2022/05/16 12:43:23;;;;;;;11.85;3.35;;;25.50;98.40;;;;;;5083903;28;20101;-73
2022/05/16 12:46:11;;;;;;;12.10;3.63;;;25.40;98.80;;;;;;5090883;28;20047;-75
2022/05/16 12:49:14;;;;;;;15.73;3.78;;;25.20;99.60;;;;;;5081969;28;20054;-74
2022/05/16 12:51:52;;;;;;;11.13;3.20;;;25.00;99.90;;;;;;5091776;28;20407;-74
2022/05/16 12:54:27;;;;;;;10.93;3.20;;;24.90;99.90;;;;;;5092720;28;20055;-74
2022/05/16 12:56:59;;;;;;;16.33;3.45;;;25.00;99.90;;;;;;5091663;28;20183;-76
2022/05/16 12:59:42;;;;;;;16.30;3.60;;;25.00;99.90;;;;;;5071752;28;20531;-73
2022/05/16 13:02:26;;;;;;;17.40;3.67;;;25.00;99.90;;;;;;5080123;28;20055;-75
2022/05/16 13:04:54;;;;;;;11.95;4.05;;;25.00;99.90;;;;;;5075879;28;20048;-74
2022/05/16 13:07:32;;;;;;;10.63;3.70;;;25.30;99.90;;;;;;5091819;28;20135;-73
2022/05/16 13:10:16;;;;;;;13.80;3.90;;;25.40;99.90;;;;;;5094709;28;20028;-74
2022/05/16 13:12:53;;;;;;;15.82;3.75;;;25.60;99.90;;;;;;5092986;28;20376;-74
2022/05/16 13:15:40;;;;;;;13.30;3.70;;;25.80;99.90;;;;;;5095158;28;20109;-75
2022/05/16 13:18:15;;;;;;;12.95;3.72;;;26.10;99.90;;;;;;5073745;28;20122;-74
2022/05/16 13:20:44;;;;;;;18.80;3.90;;;26.20;99.90;;;;;;5089735;28;20048;-75
2022/05/16 13:23:13;;;;;;;12.48;3.60;;;26.40;99.90;;;;;;5067219;28;20047;-75
2022/05/16 13:31:10;;;;;;;16.33;4.05;;;26.30;99.90;;;;;;5093875;28;20047;-75
2022/05/16 13:33:40;;;;;;;13.20;4.20;;;26.10;99.90;;;;;;5090400;28;20586;-75
2022/05/16 13:36:18;;;;;;;11.85;3.53;;;26.00;99.90;;;;;;5080330;28;20412;-74
2022/05/16 13:38:50;;;;;;;14.52;3.80;;;25.80;99.80;;;;;;5104083;27;20040;-76
2022/05/16 13:41:26;;;;;;;11.32;3.55;;;25.70;99.90;;;;;;5090948;28;20032;-77
2022/05/16 13:43:53;;;;;;;12.25;3.88;;;25.60;99.90;;;;;;5092128;28;20039;-80
2022/05/16 13:46:21;;;;;;;12.23;3.42;;;25.60;99.90;;;;;;5079651;28;20044;-80
2022/05/16 13:49:04;;;;;;;10.73;3.80;;;25.40;99.90;;;;;;5095448;28;20186;-80
2022/05/16 13:51:32;;;;;;;8.60;3.95;;;25.10;99.90;;;;;;5074131;28;20047;-79
2022/05/16 13:54:04;;;;;;;10.38;4.00;;;24.90;99.90;;;;;;5086626;28;20079;-80